KLAL/LAL METAR and TAF weather

Enter ICAO airport designator
Station Type Date Time Source
KLAL METAR 2019/08/22 19:50 UTC NOAA

KLAL 221950Z 11004KT 10SM SCT050 33/22 A3000


Station Type Date Time Source
KLAL Decoded METAR 2019/08/22 19:50 UTC NOAA

Station name not available
Aug 22, 2019 - 03:50 PM EDT / 2019.08.22 1950 UTC
Wind: from the ESE (110 degrees) at 5 MPH (4 KT):0
Visibility: 10 mile(s):0
Sky conditions: partly cloudy
Temperature: 91 F (33 C)
Heat index: 97.5 F (36.4 C):1
Dew Point: 71 F (22 C)
Relative Humidity: 52%
Pressure (altimeter): 30 in. Hg (1015 hPa)
ob: KLAL 221950Z 11004KT 10SM SCT050 33/22 A3000
cycle: 20

Station Type Date Time Source
KLAL TAF 2019/08/22 18:24 UTC NOAA

TAF KLAL 221722Z 2218/2318 08005KT P6SM VCTS SCT050CB BKN070
FM222200 08005KT P6SM SCT050 SCT130 BKN250
FM230100 VRB03KT P6SM SCT250
FM231400 07006KT P6SM FEW030 SCT250

Example: see airport list